createdAt,value
2023-01-28T00:02:21.232Z,61.24
2023-01-28T00:04:47.913Z,60.77
2023-01-28T00:07:14.567Z,60.68
2023-01-28T00:09:41.183Z,60.97
2023-01-28T00:12:07.840Z,60.99
2023-01-28T00:14:34.495Z,61.41
2023-01-28T00:17:01.186Z,60.44
2023-01-28T00:19:27.800Z,61.36
2023-01-28T00:21:54.474Z,61.10
2023-01-28T00:24:21.125Z,61.18
2023-01-28T00:26:47.816Z,60.09
2023-01-28T00:29:14.525Z,60.67
2023-01-28T00:31:41.248Z,60.83
2023-01-28T00:34:07.988Z,61.41
2023-01-28T00:36:34.665Z,61.69
2023-01-28T00:39:01.303Z,61.73
2023-01-28T00:41:27.984Z,61.03
2023-01-28T00:43:54.673Z,62.42
2023-01-28T00:46:21.651Z,62.93
2023-01-28T00:48:48.317Z,62.44
2023-01-28T00:51:14.963Z,62.82
2023-01-28T00:53:41.599Z,62.35
2023-01-28T00:56:08.262Z,61.59
2023-01-28T00:58:34.915Z,62.30
2023-01-28T01:01:01.545Z,61.61
2023-01-28T01:03:28.180Z,61.40
2023-01-28T01:05:54.850Z,61.64
2023-01-28T01:08:21.534Z,60.87
2023-01-28T01:10:48.209Z,61.09
2023-01-28T01:13:14.933Z,60.92
2023-01-28T01:15:41.583Z,60.83
2023-01-28T01:18:08.250Z,61.45
2023-01-28T01:20:34.858Z,61.47
2023-01-28T01:23:01.575Z,61.63
2023-01-28T01:25:28.205Z,61.57
2023-01-28T01:27:54.806Z,62.98
2023-01-28T01:30:21.473Z,63.18
2023-01-28T01:32:48.150Z,61.83
2023-01-28T01:35:15.239Z,62.23
2023-01-28T01:37:42.037Z,62.50
2023-01-28T01:40:08.713Z,62.02
2023-01-28T01:42:35.315Z,62.50
2023-01-28T01:45:02.003Z,61.55
2023-01-28T01:47:28.655Z,61.45
2023-01-28T01:49:55.344Z,62.18
2023-01-28T01:52:21.985Z,63.52
2023-01-28T01:54:48.664Z,63.48
2023-01-28T01:57:15.327Z,64.01
2023-01-28T01:59:41.924Z,64.29
2023-01-28T02:02:08.704Z,64.14
2023-01-28T02:04:35.338Z,64.22
2023-01-28T02:07:02.061Z,63.97
2023-01-28T02:09:28.769Z,63.89
2023-01-28T02:11:55.378Z,64.14
2023-01-28T02:14:30.506Z,63.79
2023-01-28T02:16:57.969Z,63.68
2023-01-28T02:19:24.682Z,63.94
2023-01-28T02:21:51.327Z,63.76
2023-01-28T02:24:18.019Z,63.54
2023-01-28T02:26:44.724Z,63.74
2023-01-28T02:29:11.432Z,64.30
2023-01-28T02:31:38.342Z,63.54
2023-01-28T02:34:05.123Z,63.99
2023-01-28T02:36:31.842Z,64.13
2023-01-28T02:38:58.491Z,63.39
2023-01-28T02:41:25.196Z,64.05
2023-01-28T02:43:51.878Z,64.32
2023-01-28T02:46:18.612Z,63.89
2023-01-28T02:48:45.330Z,64.77
2023-01-28T02:51:11.967Z,64.20
2023-01-28T02:53:38.651Z,63.30
2023-01-28T02:56:05.283Z,62.88
2023-01-28T02:58:32.004Z,63.90
2023-01-28T03:00:58.719Z,63.88
2023-01-28T03:03:25.403Z,63.92
2023-01-28T03:05:52.079Z,64.40
2023-01-28T03:08:18.781Z,64.42
2023-01-28T03:10:45.417Z,64.18
2023-01-28T03:13:12.078Z,64.35
2023-01-28T03:15:38.825Z,64.59
2023-01-28T03:18:05.550Z,65.40
2023-01-28T03:20:32.206Z,65.10
2023-01-28T03:22:58.863Z,65.73
2023-01-28T03:25:25.483Z,65.61
2023-01-28T03:27:52.078Z,65.99
2023-01-28T03:30:18.745Z,66.33
2023-01-28T03:32:45.429Z,65.67
2023-01-28T03:35:12.229Z,64.99
2023-01-28T03:37:38.891Z,65.02
2023-01-28T03:40:05.606Z,63.81
2023-01-28T03:42:32.305Z,64.31
2023-01-28T03:44:58.921Z,64.04
2023-01-28T03:47:28.009Z,64.46
2023-01-28T03:49:55.156Z,65.05
2023-01-28T03:52:21.784Z,66.16
2023-01-28T03:54:48.451Z,66.29
2023-01-28T03:57:15.100Z,66.14
2023-01-28T03:59:41.692Z,65.21
2023-01-28T04:02:08.396Z,65.08
2023-01-28T04:04:35.107Z,64.88
2023-01-28T04:07:01.783Z,65.02
2023-01-28T04:09:28.402Z,64.33
2023-01-28T04:11:55.077Z,64.43
2023-01-28T04:14:21.679Z,65.31
2023-01-28T04:16:48.381Z,65.67
2023-01-28T04:19:15.054Z,66.15
2023-01-28T04:21:41.686Z,66.27
2023-01-28T04:24:08.378Z,65.52
2023-01-28T04:26:35.109Z,66.19
2023-01-28T04:29:01.709Z,66.29
2023-01-28T04:31:28.434Z,66.19
2023-01-28T04:33:55.126Z,65.19
2023-01-28T04:36:21.769Z,65.02
2023-01-28T04:38:48.406Z,65.11
2023-01-28T04:41:15.068Z,65.51
2023-01-28T04:43:41.751Z,64.93
2023-01-28T04:46:08.450Z,64.65
2023-01-28T04:48:35.092Z,64.78
2023-01-28T04:51:01.752Z,66.23
2023-01-28T04:53:28.452Z,66.13
2023-01-28T04:55:55.109Z,66.72
2023-01-28T04:58:21.718Z,66.50
2023-01-28T05:00:48.395Z,66.13
2023-01-28T05:03:15.111Z,66.14
2023-01-28T05:05:41.767Z,66.46
2023-01-28T05:08:08.440Z,65.03
2023-01-28T05:10:35.115Z,65.66
2023-01-28T05:13:01.773Z,66.03
2023-01-28T05:15:28.426Z,65.54
2023-01-28T05:17:55.032Z,65.98
2023-01-28T05:20:21.700Z,65.73
2023-01-28T05:22:48.309Z,66.03
2023-01-28T05:25:15.302Z,66.46
2023-01-28T05:27:42.139Z,67.29
2023-01-28T05:30:08.819Z,66.98
2023-01-28T05:32:35.516Z,65.75
2023-01-28T05:35:02.259Z,64.96
2023-01-28T05:37:28.985Z,64.63
2023-01-28T05:39:55.579Z,65.71
2023-01-28T05:42:22.195Z,65.03
2023-01-28T05:44:48.865Z,64.54
2023-01-28T05:47:15.469Z,64.17
2023-01-28T05:49:42.137Z,64.27
2023-01-28T05:52:08.846Z,64.25
2023-01-28T05:54:35.507Z,64.04
2023-01-28T05:57:02.182Z,64.02
2023-01-28T05:59:28.869Z,64.08
2023-01-28T06:01:55.487Z,63.99
2023-01-28T06:04:22.153Z,63.51
2023-01-28T06:06:48.797Z,63.18
2023-01-28T06:09:15.448Z,63.02
2023-01-28T06:11:42.138Z,63.35
2023-01-28T06:14:08.774Z,63.01
2023-01-28T06:16:35.449Z,61.93
2023-01-28T06:19:02.285Z,62.35
2023-01-28T06:21:30.223Z,62.21
2023-01-28T06:23:57.099Z,61.77
2023-01-28T06:26:23.735Z,61.92
2023-01-28T06:28:50.391Z,61.99
2023-01-28T06:31:17.099Z,61.55
2023-01-28T06:33:43.764Z,61.62
2023-01-28T06:36:10.455Z,61.70
2023-01-28T06:38:37.123Z,61.26
2023-01-28T06:41:03.821Z,61.22
2023-01-28T06:43:30.516Z,61.34
2023-01-28T06:45:57.208Z,61.08
2023-01-28T06:48:23.913Z,61.05
2023-01-28T06:50:50.534Z,61.14
2023-01-28T06:53:17.193Z,60.98
2023-01-28T06:55:43.822Z,60.72
2023-01-28T06:58:10.435Z,60.36
2023-01-28T07:00:37.033Z,60.74
2023-01-28T07:03:03.754Z,61.15
2023-01-28T07:05:30.396Z,60.64
2023-01-28T07:07:57.115Z,60.93
2023-01-28T07:10:23.784Z,60.40
2023-01-28T07:12:50.436Z,60.13
2023-01-28T07:15:17.131Z,60.52
2023-01-28T07:17:43.779Z,61.26
2023-01-28T07:20:10.500Z,59.91
2023-01-28T07:22:37.108Z,59.74
2023-01-28T07:25:03.877Z,60.53
2023-01-28T07:27:30.573Z,60.43
2023-01-28T07:29:57.258Z,60.52
2023-01-28T07:32:23.920Z,60.49
2023-01-28T07:34:50.664Z,60.15
2023-01-28T07:37:17.279Z,60.53
2023-01-28T07:39:43.947Z,60.30
2023-01-28T07:42:10.539Z,60.43
2023-01-28T07:44:37.218Z,60.43
2023-01-28T07:47:03.940Z,59.79
2023-01-28T07:49:30.640Z,60.60
2023-01-28T07:51:57.319Z,60.50
2023-01-28T07:54:23.987Z,59.21
2023-01-28T07:56:50.668Z,59.81
2023-01-28T07:59:17.281Z,59.45
2023-01-28T08:01:43.939Z,59.35
2023-01-28T08:04:10.810Z,58.77
2023-01-28T08:06:37.559Z,59.32
2023-01-28T08:09:04.250Z,59.05
2023-01-28T08:11:30.870Z,59.89
2023-01-28T08:13:57.553Z,58.90
2023-01-28T08:16:24.200Z,59.95
2023-01-28T08:18:50.846Z,59.76
2023-01-28T08:21:17.494Z,59.50
2023-01-28T08:23:44.100Z,59.06
2023-01-28T08:26:10.770Z,59.82
2023-01-28T08:28:37.387Z,60.07
2023-01-28T08:31:04.134Z,60.09
2023-01-28T08:33:30.843Z,58.87
2023-01-28T08:35:57.477Z,58.68
2023-01-28T08:38:24.094Z,58.17
2023-01-28T08:40:50.806Z,58.80
2023-01-28T08:43:17.501Z,59.73
2023-01-28T08:45:44.165Z,59.17
2023-01-28T08:48:10.913Z,58.95
2023-01-28T08:50:37.575Z,59.03
2023-01-28T08:53:04.267Z,58.85
2023-01-28T08:55:30.921Z,58.66
2023-01-28T08:57:58.666Z,58.98
2023-01-28T09:00:25.515Z,59.27
2023-01-28T09:02:52.302Z,60.05
2023-01-28T09:05:19.005Z,59.92
2023-01-28T09:07:45.741Z,59.64
2023-01-28T09:10:12.483Z,59.81
2023-01-28T09:12:39.132Z,59.01
2023-01-28T09:15:05.765Z,58.95
2023-01-28T09:17:32.403Z,58.15
2023-01-28T09:19:59.095Z,58.23
2023-01-28T09:22:25.711Z,59.25
2023-01-28T09:24:52.322Z,59.20
2023-01-28T09:27:18.942Z,58.46
2023-01-28T09:29:45.663Z,59.35
2023-01-28T09:32:12.308Z,59.33
2023-01-28T09:34:38.992Z,58.45
2023-01-28T09:37:05.669Z,58.71
2023-01-28T09:39:32.301Z,58.48
2023-01-28T09:41:58.993Z,58.27
2023-01-28T09:44:25.663Z,58.37
2023-01-28T09:46:52.405Z,58.21
2023-01-28T09:49:19.079Z,58.00
2023-01-28T09:51:45.735Z,57.83
2023-01-28T09:54:12.358Z,58.87
2023-01-28T09:56:39.010Z,57.65
2023-01-28T09:59:05.708Z,58.69
2023-01-28T10:01:34.781Z,57.26
2023-01-28T10:04:01.458Z,58.56
2023-01-28T10:06:28.081Z,57.60
2023-01-28T10:08:54.719Z,58.33
2023-01-28T10:11:21.348Z,57.91
2023-01-28T10:13:48.034Z,57.95
2023-01-28T10:16:14.705Z,56.75
2023-01-28T10:18:41.359Z,58.72
2023-01-28T10:21:08.015Z,58.59
2023-01-28T10:23:34.748Z,57.44
2023-01-28T10:28:45.966Z,56.87
2023-01-28T10:31:12.683Z,56.75
2023-01-28T10:33:39.372Z,56.66
2023-01-28T10:36:06.033Z,56.59
2023-01-28T10:38:32.671Z,56.75
2023-01-28T10:40:59.316Z,57.02
2023-01-28T10:48:39.819Z,56.72
2023-01-28T10:51:06.592Z,56.76
2023-01-28T10:53:33.184Z,55.91
2023-01-28T10:55:59.849Z,56.40
2023-01-28T10:58:26.555Z,58.73
2023-01-28T11:00:53.214Z,58.63
2023-01-28T11:03:19.898Z,57.79
2023-01-28T11:05:48.817Z,57.70
2023-01-28T11:08:15.477Z,56.34
2023-01-28T11:10:42.099Z,56.50
2023-01-28T11:13:08.672Z,56.80
2023-01-28T11:15:35.307Z,58.70
2023-01-28T11:18:01.934Z,59.83
2023-01-28T11:20:28.663Z,59.71
2023-01-28T11:22:55.776Z,59.44
2023-01-28T11:25:22.436Z,58.56
2023-01-28T11:27:49.072Z,57.75
2023-01-28T11:30:15.968Z,57.76
2023-01-28T11:32:42.778Z,58.50
2023-01-28T11:35:09.421Z,58.02
2023-01-28T11:37:36.114Z,56.73
2023-01-28T11:40:02.760Z,57.22
2023-01-28T11:42:29.399Z,56.53
2023-01-28T11:44:56.123Z,56.13
2023-01-28T11:47:22.894Z,58.39
2023-01-28T11:49:49.800Z,58.88
2023-01-28T11:52:16.427Z,58.49
2023-01-28T11:54:43.396Z,58.68
2023-01-28T11:57:10.128Z,57.65
2023-01-28T11:59:36.822Z,58.84
2023-01-28T12:02:03.497Z,58.86
2023-01-28T12:04:30.157Z,61.02
2023-01-28T12:06:57.045Z,61.74
2023-01-28T12:09:23.712Z,61.02
2023-01-28T12:11:50.351Z,61.54
2023-01-28T12:14:17.039Z,61.81
2023-01-28T12:16:43.917Z,61.43
2023-01-28T12:19:10.632Z,61.70
2023-01-28T12:21:37.284Z,60.38
2023-01-28T12:24:07.342Z,61.14
2023-01-28T12:26:34.092Z,60.07
2023-01-28T12:29:00.794Z,60.13
2023-01-28T12:31:27.553Z,60.19
2023-01-28T12:33:54.412Z,61.08
2023-01-28T12:36:21.129Z,60.89
2023-01-28T12:38:47.842Z,59.00
2023-01-28T12:41:14.888Z,60.13
2023-01-28T12:43:41.529Z,60.73
2023-01-28T12:46:08.338Z,60.54
2023-01-28T12:48:35.109Z,61.78
2023-01-28T12:51:01.736Z,61.53
2023-01-28T12:53:28.385Z,59.76
2023-01-28T12:55:55.061Z,59.99
2023-01-28T12:58:21.917Z,59.57
2023-01-28T13:00:48.537Z,58.60
2023-01-28T13:03:15.304Z,59.21
2023-01-28T13:05:41.968Z,59.57
2023-01-28T13:08:08.719Z,59.41
2023-01-28T13:10:35.359Z,59.19
2023-01-28T13:13:01.980Z,60.13
2023-01-28T13:15:28.649Z,59.25
2023-01-28T13:17:55.324Z,60.48
2023-01-28T13:20:21.955Z,60.19
2023-01-28T13:22:48.675Z,58.97
2023-01-28T13:25:15.761Z,59.41
2023-01-28T13:27:42.749Z,57.97
2023-01-28T13:30:09.347Z,56.80
2023-01-28T13:32:36.104Z,57.28
2023-01-28T13:35:02.840Z,57.93
2023-01-28T13:37:29.460Z,58.11
2023-01-28T13:39:56.079Z,57.48
2023-01-28T13:42:22.747Z,56.26
2023-01-28T13:44:49.382Z,57.96
2023-01-28T13:47:16.045Z,57.82
2023-01-28T13:49:42.704Z,57.17
2023-01-28T13:52:09.323Z,57.33
2023-01-28T13:54:35.960Z,56.39
2023-01-28T13:57:03.908Z,56.83
2023-01-28T13:59:30.592Z,57.06
2023-01-28T14:01:57.272Z,58.57
2023-01-28T14:04:24.194Z,58.34
2023-01-28T14:06:50.872Z,57.85
2023-01-28T14:09:19.333Z,57.78
2023-01-28T14:11:46.679Z,58.74
2023-01-28T14:14:13.461Z,58.16
2023-01-28T14:16:40.146Z,58.14
2023-01-28T14:19:08.363Z,58.53
2023-01-28T14:21:35.052Z,58.53
2023-01-28T14:24:01.750Z,58.41
2023-01-28T14:26:28.653Z,58.14
2023-01-28T14:28:55.289Z,58.26
2023-01-28T14:31:22.038Z,58.80
2023-01-28T14:33:48.718Z,58.30
2023-01-28T14:36:15.493Z,58.53
2023-01-28T14:38:42.094Z,58.44
2023-01-28T14:41:08.756Z,58.46
2023-01-28T14:43:35.406Z,58.35
2023-01-28T14:46:04.114Z,57.67
2023-01-28T14:48:31.713Z,58.07
2023-01-28T14:50:58.403Z,58.52
2023-01-28T14:53:25.424Z,59.00
2023-01-28T14:55:52.078Z,58.51
2023-01-28T14:58:18.730Z,59.05
2023-01-28T15:00:45.407Z,58.80
2023-01-28T15:03:24.142Z,58.74
2023-01-28T15:05:51.231Z,58.56
2023-01-28T15:08:17.849Z,59.13
2023-01-28T15:10:44.575Z,58.64
2023-01-28T15:13:11.260Z,60.28
2023-01-28T15:15:37.950Z,59.82
2023-01-28T15:18:04.558Z,60.10
2023-01-28T15:20:31.178Z,59.78
2023-01-28T15:22:57.854Z,60.89
2023-01-28T15:25:24.460Z,62.41
2023-01-28T15:27:51.299Z,63.03
2023-01-28T15:30:18.273Z,63.69
2023-01-28T15:32:45.006Z,64.22
2023-01-28T15:35:11.635Z,63.40
2023-01-28T15:37:38.371Z,62.77
2023-01-28T15:40:05.030Z,62.16
2023-01-28T15:42:31.883Z,61.97
2023-01-28T15:44:58.504Z,61.90
2023-01-28T15:47:25.208Z,61.68
2023-01-28T15:49:51.810Z,61.47
2023-01-28T15:52:18.510Z,61.80
2023-01-28T15:54:45.207Z,62.91
2023-01-28T15:57:12.056Z,63.66
2023-01-28T15:59:38.742Z,63.86
2023-01-28T16:02:05.818Z,63.35
2023-01-28T16:04:32.475Z,62.73
2023-01-28T16:06:59.167Z,63.30
2023-01-28T16:09:25.833Z,64.13
2023-01-28T16:11:52.487Z,66.30
2023-01-28T16:14:19.165Z,67.27
2023-01-28T16:16:45.800Z,67.76
2023-01-28T16:19:12.461Z,66.18
2023-01-28T16:21:39.127Z,65.91
2023-01-28T16:24:05.860Z,64.68
2023-01-28T16:26:32.556Z,66.05
2023-01-28T16:28:59.208Z,66.47
2023-01-28T16:31:26.149Z,67.00
2023-01-28T16:33:52.849Z,66.43
2023-01-28T16:36:19.545Z,65.97
2023-01-28T16:38:46.257Z,66.51
2023-01-28T16:41:12.948Z,67.49
2023-01-28T16:43:39.553Z,66.93
2023-01-28T16:46:09.237Z,68.32
2023-01-28T16:48:36.538Z,68.45
2023-01-28T16:51:03.126Z,68.30
2023-01-28T16:53:29.788Z,68.41
2023-01-28T16:55:56.442Z,68.31
2023-01-28T16:58:23.177Z,67.49
2023-01-28T17:00:49.843Z,67.52
2023-01-28T17:03:16.532Z,66.28
2023-01-28T17:05:43.144Z,65.70
2023-01-28T17:08:09.793Z,66.89
2023-01-28T17:10:36.531Z,67.99
2023-01-28T17:13:03.219Z,67.08
2023-01-28T17:15:29.867Z,66.35
2023-01-28T17:17:56.528Z,65.69
2023-01-28T17:20:23.253Z,65.61
2023-01-28T17:22:49.858Z,65.31
2023-01-28T17:25:16.835Z,66.14
2023-01-28T17:27:43.608Z,65.26
2023-01-28T17:30:10.289Z,65.34
2023-01-28T17:32:36.931Z,65.75
2023-01-28T17:35:03.580Z,67.09
2023-01-28T17:37:30.185Z,67.23
2023-01-28T17:39:56.875Z,66.99
2023-01-28T17:42:23.558Z,67.38
2023-01-28T17:44:50.154Z,65.87
2023-01-28T17:47:16.769Z,66.77
2023-01-28T17:49:43.452Z,65.44
2023-01-28T17:52:10.118Z,65.78
2023-01-28T17:54:36.703Z,66.35
2023-01-28T17:57:03.372Z,66.61
2023-01-28T17:59:29.990Z,65.27
2023-01-28T18:01:56.623Z,64.75
2023-01-28T18:04:23.299Z,65.53
2023-01-28T18:06:50.041Z,65.95
2023-01-28T18:09:16.660Z,65.86
2023-01-28T18:11:43.270Z,64.89
2023-01-28T18:14:09.932Z,64.97
2023-01-28T18:16:36.569Z,64.81
2023-01-28T18:19:03.248Z,64.89
2023-01-28T18:21:31.669Z,64.43
2023-01-28T18:24:01.431Z,64.86
2023-01-28T18:26:28.119Z,63.78
2023-01-28T18:28:54.718Z,63.85
2023-01-28T18:31:21.385Z,63.73
2023-01-28T18:33:48.094Z,63.83
2023-01-28T18:36:14.719Z,63.94
2023-01-28T18:38:41.303Z,63.75
2023-01-28T18:41:07.925Z,64.14
2023-01-28T18:43:34.588Z,63.80
2023-01-28T18:46:01.304Z,65.56
2023-01-28T18:48:27.956Z,64.69
2023-01-28T18:50:54.603Z,65.00
2023-01-28T18:53:21.248Z,64.80
2023-01-28T18:55:47.891Z,63.95
2023-01-28T18:58:14.607Z,64.18
2023-01-28T19:00:41.256Z,64.03
2023-01-28T19:03:07.902Z,63.75
2023-01-28T19:05:37.707Z,63.60
2023-01-28T19:08:04.432Z,64.26
2023-01-28T19:10:31.233Z,63.53
2023-01-28T19:12:57.926Z,63.41
2023-01-28T19:15:24.633Z,63.31
2023-01-28T19:17:51.292Z,64.49
2023-01-28T19:20:17.980Z,65.45
2023-01-28T19:22:47.669Z,65.91
2023-01-28T19:25:14.741Z,65.95
2023-01-28T19:27:41.540Z,66.46
2023-01-28T19:30:08.155Z,65.37
2023-01-28T19:32:34.836Z,65.13
2023-01-28T19:35:01.581Z,65.48
2023-01-28T19:37:28.213Z,65.05
2023-01-28T19:39:54.893Z,64.52
2023-01-28T19:42:21.559Z,64.77
2023-01-28T19:44:48.151Z,64.16
2023-01-28T19:47:14.812Z,64.14
2023-01-28T19:49:41.581Z,64.84
2023-01-28T19:52:08.218Z,64.32
2023-01-28T19:54:34.921Z,64.78
2023-01-28T19:57:01.584Z,63.58
2023-01-28T19:59:28.652Z,65.02
2023-01-28T20:01:55.320Z,64.14
2023-01-28T20:04:21.968Z,65.66
2023-01-28T20:06:48.629Z,65.46
2023-01-28T20:09:15.294Z,64.69
2023-01-28T20:11:41.964Z,63.96
2023-01-28T20:14:08.568Z,64.34
2023-01-28T20:16:35.196Z,63.80
2023-01-28T20:19:01.832Z,63.27
2023-01-28T20:21:28.473Z,63.40
2023-01-28T20:23:55.175Z,62.86
2023-01-28T20:26:21.871Z,62.71
2023-01-28T20:28:48.577Z,62.50
2023-01-28T20:31:15.297Z,63.31
2023-01-28T20:33:42.022Z,63.82
2023-01-28T20:36:08.647Z,64.22
2023-01-28T20:38:35.314Z,64.99
2023-01-28T20:41:01.926Z,64.45
2023-01-28T20:43:28.804Z,63.92
2023-01-28T20:45:55.508Z,63.88
2023-01-28T20:48:22.209Z,63.62
2023-01-28T20:50:48.853Z,64.27
2023-01-28T20:53:15.508Z,65.45
2023-01-28T20:55:42.192Z,65.74
2023-01-28T20:58:08.812Z,65.58
2023-01-28T21:00:35.558Z,65.06
2023-01-28T21:03:02.210Z,65.65
2023-01-28T21:05:28.874Z,64.89
2023-01-28T21:07:55.511Z,64.83
2023-01-28T21:10:22.160Z,63.84
2023-01-28T21:12:48.840Z,63.95
2023-01-28T21:15:15.478Z,64.90
2023-01-28T21:17:42.080Z,66.62
2023-01-28T21:20:08.729Z,66.95
2023-01-28T21:22:35.379Z,66.17
2023-01-28T21:25:04.352Z,65.17
2023-01-28T21:27:31.992Z,65.35
2023-01-28T21:29:58.770Z,65.45
2023-01-28T21:32:27.573Z,65.73
2023-01-28T21:34:54.277Z,65.02
2023-01-28T21:37:20.902Z,64.37
2023-01-28T21:39:47.738Z,64.42
2023-01-28T21:42:14.412Z,64.52
2023-01-28T21:44:41.015Z,65.28
2023-01-28T21:47:07.682Z,64.92
2023-01-28T21:49:34.284Z,65.65
2023-01-28T21:52:00.952Z,65.34
2023-01-28T21:54:27.579Z,65.81
2023-01-28T21:56:54.196Z,65.57
2023-01-28T21:59:20.832Z,66.34
2023-01-28T22:01:47.506Z,65.40
2023-01-28T22:04:14.275Z,65.34
2023-01-28T22:06:41.098Z,65.05
2023-01-28T22:09:07.784Z,65.09
2023-01-28T22:11:34.459Z,65.61
2023-01-28T22:14:01.149Z,66.07
2023-01-28T22:16:27.798Z,66.74
2023-01-28T22:18:54.435Z,66.59
2023-01-28T22:21:21.053Z,66.51
2023-01-28T22:23:47.717Z,66.05
2023-01-28T22:26:14.292Z,66.20
2023-01-28T22:28:40.959Z,65.08
2023-01-28T22:31:07.716Z,65.47
2023-01-28T22:33:34.385Z,64.46
2023-01-28T22:36:01.220Z,64.40
2023-01-28T22:38:27.833Z,64.22
2023-01-28T22:40:54.533Z,64.38
2023-01-28T22:43:21.243Z,63.98
2023-01-28T22:45:47.927Z,63.34
2023-01-28T22:48:14.583Z,64.02
2023-01-28T22:50:41.265Z,65.11
2023-01-28T22:53:07.948Z,64.92
2023-01-28T22:55:34.601Z,65.63
2023-01-28T22:58:01.256Z,65.28
2023-01-28T23:00:27.874Z,64.70
2023-01-28T23:02:54.506Z,64.81
2023-01-28T23:05:21.339Z,64.68
2023-01-28T23:07:48.030Z,64.94
2023-01-28T23:10:15.060Z,63.85
2023-01-28T23:12:41.846Z,64.59
2023-01-28T23:15:08.461Z,63.78
2023-01-28T23:17:35.091Z,64.46
2023-01-28T23:20:01.753Z,63.09
2023-01-28T23:22:28.375Z,63.25
2023-01-28T23:24:54.992Z,63.29
2023-01-28T23:27:21.635Z,63.11
2023-01-28T23:29:48.284Z,63.85
2023-01-28T23:32:14.890Z,63.13
2023-01-28T23:34:41.572Z,62.96
2023-01-28T23:37:08.189Z,63.58
2023-01-28T23:39:34.799Z,63.69
2023-01-28T23:42:01.540Z,63.57
2023-01-28T23:44:28.210Z,63.21
2023-01-28T23:46:55.000Z,63.40
2023-01-28T23:49:21.687Z,63.08
2023-01-28T23:51:48.381Z,62.78
2023-01-28T23:54:14.963Z,63.51
2023-01-28T23:56:41.613Z,63.79
2023-01-28T23:59:08.225Z,63.12
